createdAt,value
2018-09-19T00:01:58.050Z,96100.22
2018-09-19T00:04:26.728Z,96093.77
2018-09-19T00:06:55.396Z,96100.24
2018-09-19T00:09:24.046Z,96100.48
2018-09-19T00:11:52.693Z,96096.87
2018-09-19T00:14:21.347Z,96091.63
2018-09-19T00:16:49.965Z,96092.19
2018-09-19T00:19:18.635Z,96090.36
2018-09-19T00:21:47.251Z,96094.23
2018-09-19T00:24:15.925Z,96098.54
2018-09-19T00:26:44.574Z,96098.66
2018-09-19T00:29:13.194Z,96093.42
2018-09-19T00:31:41.857Z,96095.83
2018-09-19T00:34:10.549Z,96091.30
2018-09-19T00:36:39.163Z,96094.22
2018-09-19T00:39:08.793Z,96094.69
2018-09-19T00:41:37.613Z,96097.08
2018-09-19T00:44:06.388Z,96097.53
2018-09-19T00:46:35.004Z,96098.55
2018-09-19T00:49:03.611Z,96088.24
2018-09-19T00:51:32.244Z,96096.95
2018-09-19T00:54:00.864Z,96091.74
2018-09-19T00:56:29.491Z,96097.31
2018-09-19T00:58:58.232Z,96093.56
2018-09-19T01:01:26.890Z,96095.84
2018-09-19T01:03:55.517Z,96093.56
2018-09-19T01:06:24.118Z,96096.75
2018-09-19T01:08:52.724Z,96089.48
2018-09-19T01:11:21.355Z,96091.55
2018-09-19T01:13:50.074Z,96092.53
2018-09-19T01:16:18.723Z,96089.92
2018-09-19T01:18:47.343Z,96084.64
2018-09-19T01:21:16.044Z,96086.87
2018-09-19T01:23:44.650Z,96083.70
2018-09-19T01:26:13.304Z,96090.38
2018-09-19T01:28:41.934Z,96093.11
2018-09-19T01:31:10.569Z,96084.62
2018-09-19T01:33:39.227Z,96091.62
2018-09-19T01:36:07.883Z,96082.22
2018-09-19T01:38:36.524Z,96078.70
2018-09-19T01:41:05.176Z,96088.56
2018-09-19T01:43:33.824Z,96083.37
2018-09-19T01:46:02.440Z,96079.27
2018-09-19T01:48:31.079Z,96087.87
2018-09-19T01:50:59.732Z,96076.00
2018-09-19T01:53:28.376Z,96078.71
2018-09-19T01:55:57.026Z,96071.00
2018-09-19T01:58:25.741Z,96075.50
2018-09-19T02:00:54.358Z,96079.19
2018-09-19T02:03:23.007Z,96073.86
2018-09-19T02:05:51.692Z,96080.30
2018-09-19T02:08:20.331Z,96071.47
2018-09-19T02:10:48.994Z,96073.27
2018-09-19T02:13:17.808Z,96074.63
2018-09-19T02:15:46.442Z,96076.54
2018-09-19T02:18:15.107Z,96068.53
2018-09-19T02:20:43.832Z,96083.22
2018-09-19T02:23:12.531Z,96078.91
2018-09-19T02:25:41.177Z,96085.52
2018-09-19T02:28:09.888Z,96087.63
2018-09-19T02:30:38.557Z,96087.59
2018-09-19T02:33:07.178Z,96083.63
2018-09-19T02:35:35.884Z,96087.24
2018-09-19T02:38:04.633Z,96078.30
2018-09-19T02:40:33.274Z,96075.24
2018-09-19T02:43:01.895Z,96078.66
2018-09-19T02:45:30.533Z,96077.30
2018-09-19T02:47:59.176Z,96081.61
2018-09-19T02:50:27.807Z,96078.66
2018-09-19T02:52:57.265Z,96082.31
2018-09-19T02:55:27.007Z,96077.03
2018-09-19T02:57:55.659Z,95900.30
2018-09-19T03:00:24.361Z,96082.67
2018-09-19T03:02:53.012Z,96090.09
2018-09-19T03:05:21.676Z,96087.34
2018-09-19T03:07:50.287Z,96086.22
2018-09-19T03:10:18.908Z,96083.17
2018-09-19T03:12:47.558Z,96083.76
2018-09-19T03:15:16.192Z,96077.89
2018-09-19T03:17:44.926Z,96080.30
2018-09-19T03:20:13.514Z,96082.67
2018-09-19T03:22:42.130Z,96077.91
2018-09-19T03:25:10.828Z,96083.37
2018-09-19T03:27:39.499Z,96084.56
2018-09-19T03:30:08.207Z,96080.23
2018-09-19T03:32:36.833Z,96077.06
2018-09-19T03:35:05.551Z,96080.67
2018-09-19T03:37:34.200Z,96081.64
2018-09-19T03:40:02.811Z,96085.33
2018-09-19T03:42:31.424Z,96083.61
2018-09-19T03:45:00.055Z,96085.52
2018-09-19T03:47:28.712Z,96080.66
2018-09-19T03:49:57.325Z,96086.62
2018-09-19T03:52:25.927Z,96084.54
2018-09-19T03:54:54.590Z,96083.19
2018-09-19T03:57:24.161Z,96080.77
2018-09-19T03:59:52.792Z,96084.39
2018-09-19T04:02:21.452Z,96082.92
2018-09-19T04:04:50.076Z,96082.56
2018-09-19T04:07:18.835Z,96083.47
2018-09-19T04:09:47.551Z,96079.22
2018-09-19T04:12:16.399Z,96081.92
2018-09-19T04:14:45.191Z,96081.20
2018-09-19T04:17:14.180Z,96082.08
2018-09-19T04:19:42.958Z,96079.95
2018-09-19T04:22:11.863Z,96083.83
2018-09-19T04:24:40.811Z,96088.69
2018-09-19T04:27:09.864Z,96085.64
2018-09-19T04:29:38.568Z,96080.20
2018-09-19T04:32:07.254Z,96087.57
2018-09-19T04:34:36.171Z,96088.69
2018-09-19T04:37:05.340Z,96089.24
2018-09-19T04:39:34.229Z,96093.31
2018-09-19T04:42:02.939Z,96088.42
2018-09-19T04:44:31.630Z,96092.86
2018-09-19T04:47:00.384Z,96088.63
2018-09-19T04:49:29.058Z,96090.87
2018-09-19T04:51:57.770Z,96086.67
2018-09-19T04:54:26.409Z,96089.80
2018-09-19T04:56:55.084Z,96094.46
2018-09-19T04:59:23.768Z,96099.03
2018-09-19T05:01:52.455Z,96104.56
2018-09-19T05:04:21.110Z,96107.49
2018-09-19T05:06:49.763Z,96103.55
2018-09-19T05:09:18.464Z,96113.72
2018-09-19T05:11:47.111Z,96108.78
2018-09-19T05:14:15.849Z,96109.19
2018-09-19T05:16:44.506Z,96110.17
2018-09-19T05:19:13.153Z,96105.75
2018-09-19T05:21:41.790Z,96101.50
2018-09-19T05:24:10.449Z,96102.59
2018-09-19T05:26:39.135Z,96104.41
2018-09-19T05:29:07.771Z,96099.83
2018-09-19T05:31:36.578Z,96103.78
2018-09-19T05:34:05.241Z,96106.08
2018-09-19T05:36:33.910Z,96104.59
2018-09-19T05:39:02.578Z,96103.23
2018-09-19T05:41:31.258Z,96104.30
2018-09-19T05:43:59.920Z,96107.30
2018-09-19T05:46:28.548Z,96113.86
2018-09-19T05:48:57.180Z,96116.02
2018-09-19T05:51:25.860Z,96124.83
2018-09-19T05:53:54.515Z,96116.52
2018-09-19T05:56:23.218Z,96118.08
2018-09-19T05:58:51.902Z,96115.59
2018-09-19T06:01:20.586Z,96121.06
2018-09-19T06:03:49.252Z,96119.00
2018-09-19T06:06:17.883Z,96121.91
2018-09-19T06:08:46.676Z,96120.43
2018-09-19T06:11:15.381Z,96126.04
2018-09-19T06:13:44.180Z,96128.58
2018-09-19T06:16:12.820Z,96129.05
2018-09-19T06:18:41.429Z,96121.47
2018-09-19T06:21:10.095Z,96127.31
2018-09-19T06:23:38.873Z,96118.08
2018-09-19T06:26:07.522Z,96119.51
2018-09-19T06:28:36.170Z,96122.81
2018-09-19T06:31:04.756Z,96122.08
2018-09-19T06:33:33.477Z,96125.17
2018-09-19T06:36:02.073Z,96126.00
2018-09-19T06:38:30.707Z,96123.55
2018-09-19T06:40:59.423Z,96127.75
2018-09-19T06:43:28.062Z,96120.44
2018-09-19T06:45:56.689Z,96126.83
2018-09-19T06:48:25.310Z,96123.41
2018-09-19T06:50:53.995Z,96122.85
2018-09-19T06:53:22.637Z,96114.43
2018-09-19T06:55:51.289Z,96117.83
2018-09-19T06:58:20.017Z,96119.12
2018-09-19T07:00:48.654Z,96119.36
2018-09-19T07:03:17.328Z,96112.20
2018-09-19T07:05:46.169Z,96115.05
2018-09-19T07:08:14.870Z,96117.23
2018-09-19T07:10:43.593Z,96122.28
2018-09-19T07:13:12.311Z,96122.47
2018-09-19T07:15:41.046Z,96124.86
2018-09-19T07:18:09.756Z,95852.09
2018-09-19T07:20:38.435Z,96122.93
2018-09-19T07:23:07.227Z,96128.98
2018-09-19T07:25:35.886Z,96134.14
2018-09-19T07:28:04.615Z,96129.04
2018-09-19T07:30:33.235Z,96133.36
2018-09-19T07:33:01.888Z,96136.19
2018-09-19T07:35:30.656Z,96130.66
2018-09-19T07:37:59.277Z,96128.47
2018-09-19T07:40:28.002Z,96134.80
2018-09-19T07:42:56.634Z,96129.30
2018-09-19T07:45:25.275Z,96127.70
2018-09-19T07:47:53.951Z,96124.30
2018-09-19T07:50:22.586Z,96127.11
2018-09-19T07:52:51.236Z,96126.55
2018-09-19T07:55:19.932Z,96123.39
2018-09-19T07:57:48.589Z,96120.42
2018-09-19T08:00:20.154Z,96123.38
2018-09-19T08:02:49.109Z,96116.25
2018-09-19T08:05:18.141Z,96114.05
2018-09-19T08:07:46.867Z,96109.98
2018-09-19T08:10:15.523Z,96111.75
2018-09-19T08:12:44.159Z,96113.48
2018-09-19T08:15:12.803Z,96114.87
2018-09-19T08:17:41.416Z,96116.88
2018-09-19T08:20:10.283Z,96107.58
2018-09-19T08:22:39.035Z,96107.93
2018-09-19T08:25:07.883Z,96105.39
2018-09-19T08:27:36.768Z,96104.56
2018-09-19T08:30:08.766Z,96104.03
2018-09-19T08:32:37.433Z,96092.73
2018-09-19T08:35:06.294Z,96098.84
2018-09-19T08:37:35.082Z,96093.00
2018-09-19T08:40:04.099Z,96089.97
2018-09-19T08:42:32.738Z,96093.80
2018-09-19T08:45:01.421Z,96093.95
2018-09-19T08:47:30.155Z,96094.39
2018-09-19T08:49:58.798Z,96095.61
2018-09-19T08:52:27.549Z,96084.32
2018-09-19T08:54:56.232Z,96078.51
2018-09-19T08:57:24.969Z,96077.84
2018-09-19T08:59:53.788Z,96076.10
2018-09-19T09:02:22.458Z,96073.72
2018-09-19T09:04:51.147Z,96070.45
2018-09-19T09:07:19.851Z,96070.58
2018-09-19T09:09:48.481Z,96068.05
2018-09-19T09:12:17.235Z,96068.34
2018-09-19T09:14:45.909Z,96063.38
2018-09-19T09:17:14.631Z,96071.04
2018-09-19T09:19:43.393Z,96051.40
2018-09-19T09:22:12.103Z,96054.59
2018-09-19T09:24:40.834Z,96057.29
2018-09-19T09:27:09.641Z,96055.91
2018-09-19T09:29:38.270Z,96051.16
2018-09-19T09:32:07.009Z,96047.33
2018-09-19T09:34:35.666Z,96038.20
2018-09-19T09:37:04.433Z,96045.85
2018-09-19T09:39:33.079Z,96046.89
2018-09-19T09:42:01.851Z,96042.97
2018-09-19T09:44:30.606Z,96046.43
2018-09-19T09:46:59.561Z,96040.84
2018-09-19T09:49:28.357Z,95931.46
2018-09-19T09:51:57.113Z,96040.38
2018-09-19T09:54:25.898Z,96032.88
2018-09-19T09:56:54.570Z,96026.92
2018-09-19T09:59:23.251Z,96023.50
2018-09-19T10:01:52.082Z,96019.03
2018-09-19T10:04:20.799Z,96022.09
2018-09-19T10:06:49.488Z,96016.01
2018-09-19T10:09:24.550Z,96020.47
2018-09-19T10:11:53.244Z,96017.59
2018-09-19T10:14:21.888Z,96013.55
2018-09-19T10:16:50.658Z,96010.09
2018-09-19T10:19:19.723Z,96007.68
2018-09-19T10:21:48.430Z,96011.48
2018-09-19T10:24:17.115Z,95606.97
2018-09-19T10:26:45.760Z,96002.81
2018-09-19T10:29:14.476Z,95996.89
2018-09-19T10:31:43.090Z,95996.55
2018-09-19T10:34:11.770Z,96004.71
2018-09-19T10:36:40.447Z,96016.02
2018-09-19T10:39:09.121Z,95996.19
2018-09-19T10:41:37.815Z,95987.52
2018-09-19T10:44:06.503Z,95984.23
2018-09-19T10:46:35.219Z,95987.28
2018-09-19T10:49:03.889Z,95977.68
2018-09-19T10:51:32.805Z,95973.09
2018-09-19T10:54:01.512Z,95976.23
2018-09-19T10:56:30.201Z,95972.84
2018-09-19T10:58:58.887Z,95969.79
2018-09-19T11:01:27.593Z,95964.85
2018-09-19T11:03:56.330Z,95963.05
2018-09-19T11:06:25.043Z,95952.99
2018-09-19T11:08:53.778Z,95951.19
2018-09-19T11:11:22.550Z,95952.58
2018-09-19T11:13:51.233Z,95960.61
2018-09-19T11:16:19.875Z,95949.22
2018-09-19T11:18:48.565Z,95950.81
2018-09-19T11:21:17.322Z,95949.12
2018-09-19T11:23:46.010Z,95933.58
2018-09-19T11:26:14.698Z,95942.62
2018-09-19T11:28:43.371Z,95934.16
2018-09-19T11:31:12.083Z,95931.89
2018-09-19T11:33:40.785Z,95935.34
2018-09-19T11:36:09.405Z,95935.87
2018-09-19T11:38:38.062Z,95933.92
2018-09-19T11:41:06.755Z,95921.57
2018-09-19T11:43:35.439Z,95919.86
2018-09-19T11:46:05.041Z,95914.50
2018-09-19T11:48:33.707Z,95919.72
2018-09-19T11:51:02.407Z,95911.58
2018-09-19T11:53:31.044Z,95920.66
2018-09-19T11:56:00.519Z,95904.26
2018-09-19T11:58:30.168Z,95909.59
2018-09-19T12:00:59.247Z,95900.41
2018-09-19T12:03:28.443Z,95897.88
2018-09-19T12:05:57.142Z,95912.16
2018-09-19T12:08:25.803Z,95907.98
2018-09-19T12:10:54.507Z,95894.36
2018-09-19T12:13:23.178Z,95894.23
2018-09-19T12:15:51.846Z,95892.18
2018-09-19T12:18:20.542Z,95893.13
2018-09-19T12:20:49.199Z,95889.09
2018-09-19T12:23:17.876Z,95885.16
2018-09-19T12:25:46.603Z,95881.62
2018-09-19T12:28:15.262Z,95866.59
2018-09-19T12:30:43.891Z,95866.27
2018-09-19T12:33:12.566Z,95863.05
2018-09-19T12:35:41.241Z,95861.09
2018-09-19T12:38:09.887Z,95857.07
2018-09-19T12:40:38.665Z,95857.95
2018-09-19T12:43:07.358Z,95848.91
2018-09-19T12:45:36.619Z,95856.45
2018-09-19T12:48:05.404Z,95855.83
2018-09-19T12:50:34.184Z,95851.50
2018-09-19T12:53:02.907Z,95853.63
2018-09-19T12:55:31.647Z,95863.53
2018-09-19T12:58:00.361Z,95857.98
2018-09-19T13:00:29.039Z,95855.05
2018-09-19T13:02:57.720Z,95860.19
2018-09-19T13:05:26.332Z,95849.70
2018-09-19T13:07:55.025Z,95847.84
2018-09-19T13:10:23.710Z,95857.14
2018-09-19T13:12:52.402Z,95837.71
2018-09-19T13:15:21.074Z,95836.02
2018-09-19T13:17:49.803Z,95832.59
2018-09-19T13:20:18.467Z,95835.66
2018-09-19T13:22:47.153Z,95854.24
2018-09-19T13:25:15.924Z,95834.95
2018-09-19T13:27:44.566Z,95828.97
2018-09-19T13:30:13.352Z,95821.39
2018-09-19T13:32:42.016Z,95824.31
2018-09-19T13:35:10.691Z,95820.20
2018-09-19T13:37:39.371Z,95819.29
2018-09-19T13:40:08.141Z,95817.91
2018-09-19T13:42:36.915Z,95513.63
2018-09-19T13:45:05.603Z,95820.01
2018-09-19T13:47:34.423Z,95821.63
2018-09-19T13:50:20.228Z,95814.63
2018-09-19T13:52:48.934Z,95816.61
2018-09-19T13:55:17.658Z,95809.97
2018-09-19T13:57:46.335Z,95809.89
2018-09-19T14:00:21.049Z,95811.91
2018-09-19T14:02:49.743Z,95398.39
2018-09-19T14:05:18.407Z,95808.78
2018-09-19T14:07:47.247Z,95815.42
2018-09-19T14:10:16.036Z,95809.18
2018-09-19T14:12:44.755Z,95803.31
2018-09-19T14:15:13.739Z,95815.78
2018-09-19T14:17:42.423Z,95809.67
2018-09-19T14:20:11.196Z,95812.42
2018-09-19T14:22:39.914Z,95811.87
2018-09-19T14:25:08.568Z,95808.56
2018-09-19T14:27:37.223Z,95807.97
2018-09-19T14:30:07.069Z,95807.97
2018-09-19T14:32:36.034Z,95803.86
2018-09-19T14:35:04.750Z,95800.97
2018-09-19T14:37:33.518Z,95795.73
2018-09-19T14:40:02.193Z,95793.70
2018-09-19T14:42:30.867Z,95798.59
2018-09-19T14:44:59.495Z,95797.40
2018-09-19T14:47:28.179Z,95800.66
2018-09-19T14:49:57.028Z,95799.63
2018-09-19T14:52:25.723Z,95800.13
2018-09-19T14:54:54.354Z,95797.69
2018-09-19T14:57:23.049Z,95794.23
2018-09-19T14:59:51.691Z,95805.84
2018-09-19T15:02:20.399Z,95796.77
2018-09-19T15:04:49.084Z,95798.16
2018-09-19T15:07:17.790Z,95800.63
2018-09-19T15:09:46.452Z,95799.03
2018-09-19T15:12:15.138Z,95800.80
2018-09-19T15:14:43.931Z,95814.58
2018-09-19T15:17:12.615Z,95805.96
2018-09-19T15:19:41.353Z,95805.68
2018-09-19T15:22:10.012Z,95795.37
2018-09-19T15:24:38.700Z,95808.19
2018-09-19T15:27:07.655Z,95808.47
2018-09-19T15:29:36.327Z,95805.58
2018-09-19T15:32:05.012Z,95818.81
2018-09-19T15:34:33.643Z,95817.48
2018-09-19T15:37:02.394Z,95816.30
2018-09-19T15:39:31.104Z,95813.05
2018-09-19T15:42:02.983Z,95818.78
2018-09-19T15:44:31.830Z,95827.56
2018-09-19T15:47:00.383Z,95821.06
2018-09-19T15:49:29.144Z,95823.56
2018-09-19T15:51:57.843Z,95819.88
2018-09-19T15:54:26.489Z,95824.02
2018-09-19T15:56:55.144Z,95822.86
2018-09-19T15:59:23.850Z,95828.84
2018-09-19T16:01:52.510Z,95827.93
2018-09-19T16:04:21.163Z,95828.39
2018-09-19T16:06:50.100Z,95828.23
2018-09-19T16:09:18.844Z,95829.81
2018-09-19T16:11:47.531Z,95837.36
2018-09-19T16:14:16.260Z,95840.52
2018-09-19T16:16:44.940Z,95845.71
2018-09-19T16:19:13.632Z,95838.30
2018-09-19T16:21:42.286Z,95839.69
2018-09-19T16:24:10.927Z,95853.24
2018-09-19T16:26:39.571Z,95850.30
2018-09-19T16:29:08.282Z,95853.08
2018-09-19T16:31:36.935Z,95852.50
2018-09-19T16:34:05.804Z,95857.23
2018-09-19T16:36:34.559Z,95858.60
2018-09-19T16:39:04.643Z,95864.70
2018-09-19T16:41:33.322Z,95862.33
2018-09-19T16:44:02.071Z,95856.23
2018-09-19T16:46:30.712Z,95862.50
2018-09-19T16:48:59.371Z,95865.08
2018-09-19T16:51:28.063Z,95877.25
2018-09-19T16:53:56.880Z,95873.52
2018-09-19T16:56:25.837Z,95883.52
2018-09-19T16:58:54.498Z,95883.32
2018-09-19T17:01:23.244Z,95886.85
2018-09-19T17:03:51.929Z,95899.60
2018-09-19T17:06:20.603Z,95902.75
2018-09-19T17:08:49.225Z,95908.63
2018-09-19T17:11:17.887Z,95902.06
2018-09-19T17:13:46.524Z,95907.14
2018-09-19T17:16:15.714Z,95915.94
2018-09-19T17:18:44.407Z,95912.56
2018-09-19T17:21:13.114Z,95922.94
2018-09-19T17:23:41.748Z,95918.57
2018-09-19T17:26:10.385Z,95930.89
2018-09-19T17:28:39.273Z,95928.28
2018-09-19T17:31:07.981Z,95929.22
2018-09-19T17:33:36.997Z,95932.47
2018-09-19T17:36:05.887Z,95939.06
2018-09-19T17:38:34.660Z,95942.38
2018-09-19T17:41:03.347Z,95940.55
2018-09-19T17:43:32.062Z,95947.72
2018-09-19T17:46:01.057Z,95950.98
2018-09-19T17:48:29.940Z,95953.32
2018-09-19T17:50:58.617Z,95963.07
2018-09-19T17:53:27.263Z,95959.14
2018-09-19T17:55:55.930Z,95963.76
2018-09-19T17:58:24.625Z,95965.81
2018-09-19T18:00:53.389Z,95963.80
2018-09-19T18:03:22.063Z,95963.31
2018-09-19T18:05:51.081Z,95972.64
2018-09-19T18:08:19.797Z,95969.20
2018-09-19T18:10:49.148Z,95974.20
2018-09-19T18:13:17.815Z,95970.20
2018-09-19T18:15:46.749Z,95973.44
2018-09-19T18:18:15.493Z,95895.84
2018-09-19T18:20:44.303Z,95976.30
2018-09-19T18:23:12.952Z,95977.99
2018-09-19T18:25:41.811Z,95980.64
2018-09-19T18:28:10.481Z,95976.12
2018-09-19T18:30:39.308Z,95983.34
2018-09-19T18:33:07.979Z,95980.00
2018-09-19T18:35:36.670Z,95988.44
2018-09-19T18:38:05.337Z,95989.58
2018-09-19T18:40:34.089Z,95983.91
2018-09-19T18:43:02.787Z,95981.34
2018-09-19T18:45:31.426Z,95995.21
2018-09-19T18:48:00.117Z,95997.53
2018-09-19T18:50:28.770Z,96005.27
2018-09-19T18:52:57.407Z,96002.44
2018-09-19T18:55:26.055Z,96002.33
2018-09-19T18:57:54.715Z,96002.84
2018-09-19T19:00:23.449Z,95999.05
2018-09-19T19:02:52.100Z,96006.20
2018-09-19T19:05:20.856Z,96002.44
2018-09-19T19:07:49.519Z,96000.27
2018-09-19T19:10:18.189Z,96008.83
2018-09-19T19:12:46.881Z,96008.21
2018-09-19T19:15:15.479Z,96006.20
2018-09-19T19:17:44.105Z,96014.94
2018-09-19T19:20:12.779Z,96012.36
2018-09-19T19:22:41.471Z,96010.92
2018-09-19T19:25:10.187Z,96008.91
2018-09-19T19:27:39.207Z,96009.59
2018-09-19T19:30:11.759Z,96012.85
2018-09-19T19:32:40.422Z,96007.54
2018-09-19T19:35:09.156Z,96010.80
2018-09-19T19:37:37.879Z,96007.95
2018-09-19T19:40:06.869Z,96005.09
2018-09-19T19:42:35.612Z,96004.61
2018-09-19T19:45:04.259Z,96009.61
2018-09-19T19:47:32.876Z,96006.60
2018-09-19T19:50:01.529Z,96011.00
2018-09-19T19:52:30.173Z,96013.75
2018-09-19T19:54:58.811Z,96011.55
2018-09-19T19:57:27.481Z,96014.43
2018-09-19T19:59:56.106Z,96012.70
2018-09-19T20:02:24.748Z,96012.19
2018-09-19T20:04:53.453Z,96001.22
2018-09-19T20:07:22.179Z,96009.83
2018-09-19T20:09:50.828Z,96001.22
2018-09-19T20:12:19.533Z,96004.89
2018-09-19T20:14:48.200Z,96008.33
2018-09-19T20:17:16.932Z,96006.82
2018-09-19T20:19:45.657Z,96011.14
2018-09-19T20:22:14.307Z,96004.09
2018-09-19T20:24:42.986Z,96002.87
2018-09-19T20:27:11.616Z,95997.92
2018-09-19T20:29:40.263Z,96006.50
2018-09-19T20:32:08.904Z,96000.09
2018-09-19T20:34:37.640Z,95997.30
2018-09-19T20:37:06.444Z,96000.86
2018-09-19T20:39:35.095Z,95998.41
2018-09-19T20:42:03.732Z,95996.48
2018-09-19T20:44:32.456Z,96001.94
2018-09-19T20:47:01.239Z,95999.78
2018-09-19T20:49:29.865Z,96003.50
2018-09-19T20:51:58.532Z,96006.59
2018-09-19T20:54:28.645Z,95862.80
2018-09-19T20:56:57.400Z,96001.34
2018-09-19T20:59:26.072Z,96005.34
2018-09-19T21:01:54.731Z,95999.83
2018-09-19T21:04:23.442Z,95996.08
2018-09-19T21:06:52.131Z,95994.80
2018-09-19T21:09:20.761Z,95997.01
2018-09-19T21:11:49.400Z,96000.30
2018-09-19T21:14:18.075Z,95998.17
2018-09-19T21:16:46.738Z,96001.36
2018-09-19T21:19:15.383Z,95995.71
2018-09-19T21:21:44.109Z,96000.07
2018-09-19T21:24:12.884Z,95998.97
2018-09-19T21:26:41.555Z,95998.11
2018-09-19T21:29:10.240Z,95997.22
2018-09-19T21:31:38.971Z,95993.92
2018-09-19T21:34:07.675Z,96002.46
2018-09-19T21:36:36.338Z,95994.98
2018-09-19T21:39:07.797Z,96000.94
2018-09-19T21:41:36.476Z,95999.70
2018-09-19T21:44:05.115Z,95996.94
2018-09-19T21:46:33.773Z,96003.44
2018-09-19T21:49:02.396Z,96009.02
2018-09-19T21:51:31.097Z,96003.39
2018-09-19T21:53:59.770Z,95999.00
2018-09-19T21:56:28.476Z,95995.97
2018-09-19T21:58:57.218Z,96012.23
2018-09-19T22:01:31.045Z,95996.91
2018-09-19T22:03:59.755Z,95996.96
2018-09-19T22:06:28.440Z,95997.78
2018-09-19T22:08:57.118Z,96001.91
2018-09-19T22:11:25.840Z,95998.44
2018-09-19T22:13:54.467Z,95994.80
2018-09-19T22:16:23.114Z,95996.41
2018-09-19T22:18:51.795Z,95993.73
2018-09-19T22:21:20.438Z,95995.34
2018-09-19T22:23:49.085Z,95988.46
2018-09-19T22:26:17.770Z,95988.34
2018-09-19T22:28:46.411Z,95988.70
2018-09-19T22:31:15.056Z,95989.75
2018-09-19T22:33:43.791Z,95982.95
2018-09-19T22:36:12.433Z,95981.39
2018-09-19T22:38:41.108Z,95974.72
2018-09-19T22:41:09.832Z,95985.92
2018-09-19T22:43:38.473Z,95983.45
2018-09-19T22:46:07.166Z,95984.16
2018-09-19T22:48:35.900Z,95984.86
2018-09-19T22:51:04.611Z,95986.92
2018-09-19T22:53:33.315Z,95984.68
2018-09-19T22:56:01.973Z,95982.75
2018-09-19T22:58:30.657Z,95984.11
2018-09-19T23:00:59.379Z,95986.47
2018-09-19T23:03:28.040Z,95989.75
2018-09-19T23:05:56.706Z,95983.44
2018-09-19T23:08:25.349Z,95982.84
2018-09-19T23:10:53.974Z,95981.84
2018-09-19T23:13:22.635Z,95977.53
2018-09-19T23:15:51.269Z,95982.96
2018-09-19T23:18:20.265Z,95976.31
2018-09-19T23:23:46.521Z,95972.81
2018-09-19T23:26:15.152Z,95969.53
2018-09-19T23:28:43.829Z,95966.83
2018-09-19T23:31:12.478Z,95969.87
2018-09-19T23:33:41.135Z,95967.38
2018-09-19T23:36:09.749Z,95969.55
2018-09-19T23:38:39.140Z,95971.81
2018-09-19T23:41:07.808Z,95968.63
2018-09-19T23:43:36.465Z,95966.82
2018-09-19T23:46:05.168Z,95968.97
2018-09-19T23:48:33.863Z,95970.00
2018-09-19T23:51:02.479Z,95969.42
2018-09-19T23:53:31.113Z,95972.25
2018-09-19T23:55:59.833Z,95968.97
2018-09-19T23:58:28.437Z,95972.14
